createdAt,value
2023-01-19T00:01:42.618Z,6.37
2023-01-19T00:04:10.599Z,6.90
2023-01-19T00:06:38.392Z,6.23
2023-01-19T00:09:06.218Z,5.73
2023-01-19T00:11:33.965Z,6.57
2023-01-19T00:14:01.721Z,5.70
2023-01-19T00:16:30.900Z,6.20
2023-01-19T00:18:58.721Z,6.07
2023-01-19T00:21:26.562Z,6.70
2023-01-19T00:23:54.335Z,6.90
2023-01-19T00:26:22.983Z,7.17
2023-01-19T00:28:51.163Z,6.57
2023-01-19T00:31:21.404Z,7.33
2023-01-19T00:33:52.481Z,7.40
2023-01-19T00:36:20.618Z,7.20
2023-01-19T00:38:48.449Z,7.67
2023-01-19T00:41:16.457Z,7.23
2023-01-19T00:43:43.554Z,6.50
2023-01-19T00:46:11.470Z,6.50
2023-01-19T00:48:39.235Z,7.40
2023-01-19T00:51:08.351Z,6.27
2023-01-19T00:53:36.137Z,6.53
2023-01-19T00:56:03.942Z,7.00
2023-01-19T00:58:31.741Z,6.73
2023-01-19T01:01:03.582Z,7.50
2023-01-19T01:03:31.624Z,6.60
2023-01-19T01:05:59.523Z,6.20
2023-01-19T01:08:28.714Z,6.33
2023-01-19T01:10:57.033Z,6.40
2023-01-19T01:13:27.482Z,7.13
2023-01-19T01:15:56.493Z,7.17
2023-01-19T01:18:24.905Z,7.27
2023-01-19T01:20:55.165Z,6.63
2023-01-19T01:23:23.869Z,5.87
2023-01-19T01:25:53.419Z,6.70
2023-01-19T01:28:21.522Z,6.10
2023-01-19T01:30:53.581Z,6.43
2023-01-19T01:33:41.045Z,6.93
2023-01-19T01:36:09.951Z,6.30
2023-01-19T01:38:37.874Z,6.87
2023-01-19T01:41:07.164Z,6.23
2023-01-19T01:43:47.055Z,7.17
2023-01-19T01:46:17.040Z,7.53
2023-01-19T01:48:52.585Z,6.53
2023-01-19T01:51:25.475Z,6.87
2023-01-19T01:54:02.267Z,7.07
2023-01-19T01:56:35.555Z,6.47
2023-01-19T01:59:07.210Z,6.83
2023-01-19T02:01:52.847Z,6.57
2023-01-19T02:04:21.478Z,6.93
2023-01-19T02:07:07.605Z,6.90
2023-01-19T02:09:55.971Z,7.70
2023-01-19T02:12:42.978Z,8.13
2023-01-19T02:15:19.746Z,7.80
2023-01-19T02:17:47.825Z,7.40
2023-01-19T02:20:16.431Z,7.97
2023-01-19T02:22:49.995Z,8.20
2023-01-19T02:25:20.941Z,8.27
2023-01-19T02:27:50.046Z,7.63
2023-01-19T02:30:19.307Z,8.43
2023-01-19T02:32:47.258Z,8.33
2023-01-19T02:35:15.217Z,7.77
2023-01-19T02:37:44.652Z,6.90
2023-01-19T02:40:15.880Z,6.47
2023-01-19T02:42:49.301Z,6.67
2023-01-19T02:45:21.023Z,6.70
2023-01-19T02:47:50.632Z,7.17
2023-01-19T02:50:43.502Z,7.07
2023-01-19T02:53:36.305Z,7.00
2023-01-19T02:56:16.695Z,6.63
2023-01-19T02:58:53.726Z,7.07
2023-01-19T03:01:32.430Z,6.70
2023-01-19T03:04:09.253Z,7.30
2023-01-19T03:06:45.676Z,6.60
2023-01-19T03:09:21.659Z,6.37
2023-01-19T03:11:56.191Z,6.70
2023-01-19T03:14:28.578Z,6.27
2023-01-19T03:17:01.059Z,6.90
2023-01-19T03:19:33.751Z,6.53
2023-01-19T03:22:04.572Z,7.07
2023-01-19T03:24:37.955Z,7.23
2023-01-19T03:27:09.713Z,7.10
2023-01-19T03:29:41.296Z,7.10
2023-01-19T03:32:15.137Z,7.20
2023-01-19T03:34:45.825Z,7.47
2023-01-19T03:37:15.183Z,7.40
2023-01-19T03:39:43.395Z,7.07
2023-01-19T03:42:13.913Z,7.43
2023-01-19T03:44:45.145Z,7.80
2023-01-19T03:47:15.630Z,6.93
2023-01-19T03:49:46.121Z,7.60
2023-01-19T03:52:14.046Z,7.63
2023-01-19T03:54:42.167Z,7.73
2023-01-19T03:57:09.958Z,7.37
2023-01-19T03:59:37.720Z,7.43
2023-01-19T04:02:06.897Z,8.47
2023-01-19T04:04:34.781Z,7.40
2023-01-19T04:07:02.653Z,7.23
2023-01-19T04:09:30.601Z,7.43
2023-01-19T04:11:58.363Z,6.90
2023-01-19T04:14:26.195Z,7.23
2023-01-19T04:16:54.007Z,6.80
2023-01-19T04:19:23.665Z,6.67
2023-01-19T04:21:51.765Z,6.80
2023-01-19T04:24:19.731Z,7.60
2023-01-19T04:26:47.513Z,7.10
2023-01-19T04:29:15.463Z,7.43
2023-01-19T04:31:43.220Z,7.13
2023-01-19T04:34:11.102Z,7.33
2023-01-19T04:36:40.249Z,7.03
2023-01-19T04:39:08.875Z,7.17
2023-01-19T04:41:36.674Z,7.70
2023-01-19T04:44:04.861Z,7.63
2023-01-19T04:46:32.696Z,6.97
2023-01-19T04:49:00.483Z,7.47
2023-01-19T04:51:28.629Z,7.33
2023-01-19T04:53:58.251Z,6.53
2023-01-19T04:56:26.149Z,7.27
2023-01-19T04:58:53.944Z,7.40
2023-01-19T05:01:21.955Z,6.57
2023-01-19T05:03:49.774Z,5.93
2023-01-19T05:06:17.548Z,6.93
2023-01-19T05:08:45.578Z,6.40
2023-01-19T05:11:14.734Z,6.03
2023-01-19T05:13:42.554Z,7.07
2023-01-19T05:16:10.485Z,6.50
2023-01-19T05:18:38.452Z,7.40
2023-01-19T05:21:07.160Z,6.83
2023-01-19T05:23:35.544Z,6.67
2023-01-19T05:26:04.032Z,7.83
2023-01-19T05:28:34.221Z,7.73
2023-01-19T05:31:02.303Z,6.63
2023-01-19T05:33:30.171Z,6.70
2023-01-19T05:35:57.973Z,7.73
2023-01-19T05:38:34.624Z,6.03
2023-01-19T05:41:03.111Z,7.77
2023-01-19T05:43:30.881Z,8.10
2023-01-19T05:46:00.020Z,8.07
2023-01-19T05:48:27.798Z,8.23
2023-01-19T05:50:58.996Z,8.57
2023-01-19T05:53:27.412Z,7.87
2023-01-19T05:55:55.259Z,8.07
2023-01-19T05:58:23.022Z,7.63
2023-01-19T06:00:50.792Z,9.23
2023-01-19T06:03:20.041Z,9.23
2023-01-19T06:05:47.992Z,9.10
2023-01-19T06:08:15.812Z,8.57
2023-01-19T06:10:43.583Z,8.97
2023-01-19T06:13:11.422Z,8.60
2023-01-19T06:15:39.203Z,7.27
2023-01-19T06:18:07.082Z,7.10
2023-01-19T06:20:36.430Z,7.97
2023-01-19T06:23:04.581Z,8.50
2023-01-19T06:25:32.345Z,7.97
2023-01-19T06:28:00.181Z,7.20
2023-01-19T06:30:28.949Z,7.30
2023-01-19T06:32:56.709Z,7.50
2023-01-19T06:35:24.855Z,7.23
2023-01-19T06:37:55.048Z,7.87
2023-01-19T06:40:22.841Z,7.97
2023-01-19T06:42:50.670Z,8.13
2023-01-19T06:45:18.568Z,8.70
2023-01-19T06:47:48.562Z,7.40
2023-01-19T06:50:16.896Z,8.73
2023-01-19T06:52:44.673Z,8.13
2023-01-19T06:55:14.438Z,8.13
2023-01-19T06:57:42.228Z,7.63
2023-01-19T07:00:11.715Z,8.03
2023-01-19T07:02:42.443Z,8.73
2023-01-19T07:05:11.625Z,7.87
2023-01-19T07:07:39.744Z,7.20
2023-01-19T07:10:08.871Z,8.37
2023-01-19T07:12:38.022Z,7.60
2023-01-19T07:15:07.189Z,8.03
2023-01-19T07:17:34.941Z,8.73
2023-01-19T07:20:02.974Z,7.73
2023-01-19T07:22:30.792Z,9.07
2023-01-19T07:24:58.762Z,8.90
2023-01-19T07:27:27.917Z,8.70
2023-01-19T07:29:57.063Z,8.87
2023-01-19T07:32:24.806Z,8.03
2023-01-19T07:34:52.585Z,7.67
2023-01-19T07:37:20.430Z,8.43
2023-01-19T07:39:48.199Z,7.90
2023-01-19T07:42:15.978Z,8.33
2023-01-19T07:44:43.782Z,8.53
2023-01-19T07:47:12.963Z,8.73
2023-01-19T07:49:41.312Z,9.10
2023-01-19T07:52:09.422Z,9.17
2023-01-19T07:54:37.190Z,9.23
2023-01-19T07:57:05.195Z,10.00
2023-01-19T07:59:32.977Z,8.80
2023-01-19T08:02:01.012Z,9.07
2023-01-19T08:04:30.305Z,8.60
2023-01-19T08:06:58.216Z,9.60
2023-01-19T08:09:26.065Z,9.13
2023-01-19T08:11:53.858Z,11.43
2023-01-19T08:14:21.590Z,10.67
2023-01-19T08:16:49.595Z,9.33
2023-01-19T08:19:19.301Z,7.80
2023-01-19T08:21:48.426Z,8.33
2023-01-19T08:24:21.213Z,7.43
2023-01-19T08:26:49.656Z,7.40
2023-01-19T08:29:17.440Z,7.37
2023-01-19T08:31:45.329Z,8.43
2023-01-19T08:34:13.236Z,7.27
2023-01-19T08:36:40.998Z,7.00
2023-01-19T08:39:13.152Z,6.30
2023-01-19T08:41:40.937Z,7.20
2023-01-19T08:44:08.672Z,7.60
2023-01-19T08:46:36.518Z,8.73
2023-01-19T08:49:04.433Z,8.23
2023-01-19T08:51:32.203Z,7.63
2023-01-19T08:53:59.971Z,7.77
2023-01-19T08:56:29.238Z,7.37
2023-01-19T08:59:08.702Z,7.70
2023-01-19T09:01:37.980Z,7.40
2023-01-19T09:04:06.354Z,7.07
2023-01-19T09:06:34.304Z,8.13
2023-01-19T09:09:02.155Z,8.87
2023-01-19T09:11:31.683Z,9.37
2023-01-19T09:13:59.499Z,10.87
2023-01-19T09:16:28.600Z,9.50
2023-01-19T09:18:56.620Z,7.70
2023-01-19T09:21:24.423Z,8.57
2023-01-19T09:23:52.224Z,7.53
2023-01-19T09:26:22.091Z,6.97
2023-01-19T09:28:51.237Z,7.53
2023-01-19T09:31:19.268Z,7.47
2023-01-19T09:33:47.082Z,8.50
2023-01-19T09:36:14.863Z,7.70
2023-01-19T09:38:42.657Z,7.50
2023-01-19T09:41:19.879Z,7.43
2023-01-19T09:43:55.529Z,6.47
2023-01-19T09:46:28.400Z,6.77
2023-01-19T09:48:58.341Z,6.40
2023-01-19T09:51:28.529Z,6.70
2023-01-19T09:54:03.782Z,6.80
2023-01-19T09:56:32.640Z,7.10
2023-01-19T09:59:02.641Z,7.47
2023-01-19T10:01:38.376Z,7.93
2023-01-19T10:04:28.617Z,7.63
2023-01-19T10:07:14.697Z,6.87
2023-01-19T10:09:55.606Z,6.57
2023-01-19T10:12:36.715Z,6.40
2023-01-19T10:15:18.052Z,7.00
2023-01-19T10:17:53.450Z,6.73
2023-01-19T10:20:27.987Z,6.77
2023-01-19T10:22:57.322Z,7.07
2023-01-19T10:25:27.610Z,6.50
2023-01-19T10:27:55.402Z,6.00
2023-01-19T10:30:27.156Z,6.97
2023-01-19T10:32:55.060Z,11.63
2023-01-19T10:35:25.393Z,11.23
2023-01-19T10:37:56.191Z,6.77
2023-01-19T10:40:33.057Z,7.00
2023-01-19T10:43:01.261Z,8.03
2023-01-19T10:45:32.263Z,10.17
2023-01-19T10:48:07.122Z,9.43
2023-01-19T10:50:37.001Z,7.97
2023-01-19T10:53:06.370Z,6.77
2023-01-19T10:55:37.791Z,5.97
2023-01-19T10:58:06.737Z,7.00
2023-01-19T11:00:38.295Z,6.07
2023-01-19T11:03:06.881Z,7.43
2023-01-19T11:05:35.348Z,5.97
2023-01-19T11:08:23.411Z,8.43
2023-01-19T11:10:56.550Z,6.60
2023-01-19T11:13:24.459Z,6.50
2023-01-19T11:15:57.318Z,6.70
2023-01-19T11:18:30.632Z,5.83
2023-01-19T11:21:00.926Z,6.67
2023-01-19T11:23:31.237Z,5.77
2023-01-19T11:26:01.508Z,5.73
2023-01-19T11:28:32.417Z,6.23
2023-01-19T11:31:03.427Z,6.47
2023-01-19T11:33:35.693Z,7.83
2023-01-19T11:36:06.631Z,6.97
2023-01-19T11:38:43.298Z,6.93
2023-01-19T11:41:19.060Z,5.60
2023-01-19T11:43:49.610Z,5.80
2023-01-19T11:46:19.447Z,6.00
2023-01-19T11:48:56.518Z,6.07
2023-01-19T11:51:26.335Z,4.83
2023-01-19T11:53:54.346Z,5.47
2023-01-19T11:56:24.604Z,5.00
2023-01-19T11:58:52.540Z,5.13
2023-01-19T12:01:25.409Z,5.20
2023-01-19T12:03:59.884Z,5.87
2023-01-19T12:06:32.123Z,5.50
2023-01-19T12:09:04.720Z,4.93
2023-01-19T12:11:37.494Z,5.43
2023-01-19T12:14:10.397Z,5.23
2023-01-19T12:16:41.482Z,5.00
2023-01-19T12:19:16.678Z,4.77
2023-01-19T12:21:47.976Z,4.47
2023-01-19T12:24:18.847Z,4.57
2023-01-19T12:26:52.765Z,4.67
2023-01-19T12:29:23.229Z,4.40
2023-01-19T12:32:20.432Z,4.30
2023-01-19T12:34:48.966Z,3.53
2023-01-19T12:37:34.246Z,4.40
2023-01-19T12:40:04.105Z,3.53
2023-01-19T12:42:32.057Z,4.13
2023-01-19T12:45:08.745Z,3.90
2023-01-19T12:47:38.284Z,3.40
2023-01-19T12:50:08.858Z,3.43
2023-01-19T12:52:47.631Z,3.83
2023-01-19T12:55:24.944Z,4.07
2023-01-19T12:57:59.304Z,3.90
2023-01-19T13:00:34.040Z,4.50
2023-01-19T13:03:05.416Z,4.70
2023-01-19T13:05:52.323Z,4.97
2023-01-19T13:08:31.067Z,6.00
2023-01-19T13:11:20.631Z,5.17
2023-01-19T13:14:30.509Z,5.13
2023-01-19T13:17:07.051Z,5.00
2023-01-19T13:19:46.876Z,4.07
2023-01-19T13:22:49.362Z,4.90
2023-01-19T13:25:30.579Z,5.70
2023-01-19T13:27:58.810Z,5.40
2023-01-19T13:30:29.818Z,4.40
2023-01-19T13:33:02.391Z,3.83
2023-01-19T13:35:31.605Z,3.70
2023-01-19T13:38:00.547Z,3.67
2023-01-19T13:40:38.126Z,5.30
2023-01-19T13:43:14.026Z,4.60
2023-01-19T13:45:42.412Z,4.20
2023-01-19T13:48:17.867Z,2.70
2023-01-19T13:50:58.946Z,3.27
2023-01-19T13:53:26.714Z,3.27
2023-01-19T13:56:17.899Z,3.80
2023-01-19T13:58:59.058Z,3.17
2023-01-19T14:01:29.320Z,3.40
2023-01-19T14:03:58.264Z,3.60
2023-01-19T14:06:34.027Z,3.67
2023-01-19T14:09:23.084Z,2.97
2023-01-19T14:12:08.300Z,3.07
2023-01-19T14:14:36.165Z,3.30
2023-01-19T14:17:03.978Z,3.00
2023-01-19T14:19:48.022Z,3.77
2023-01-19T14:22:17.340Z,3.37
2023-01-19T14:24:45.132Z,3.63
2023-01-19T14:27:24.512Z,4.47
2023-01-19T14:29:54.626Z,4.40
2023-01-19T14:32:24.331Z,5.13
2023-01-19T14:34:53.847Z,4.37
2023-01-19T14:37:26.319Z,4.73
2023-01-19T14:39:59.089Z,4.23
2023-01-19T14:42:34.255Z,4.00
2023-01-19T14:45:05.449Z,3.67
2023-01-19T14:47:39.130Z,4.10
2023-01-19T14:50:18.641Z,4.23
2023-01-19T14:52:52.516Z,3.83
2023-01-19T14:55:23.032Z,4.50
2023-01-19T14:57:50.791Z,3.70
2023-01-19T15:00:21.032Z,4.10
2023-01-19T15:02:48.801Z,4.00
2023-01-19T15:05:16.824Z,4.27
2023-01-19T15:07:46.775Z,3.50
2023-01-19T15:10:20.521Z,4.10
2023-01-19T15:12:49.127Z,4.10
2023-01-19T15:15:19.697Z,3.97
2023-01-19T15:17:47.740Z,3.80
2023-01-19T15:20:18.462Z,3.93
2023-01-19T15:22:46.870Z,3.77
2023-01-19T15:25:17.229Z,4.17
2023-01-19T15:27:46.081Z,4.00
2023-01-19T15:30:18.873Z,3.57
2023-01-19T15:32:46.913Z,3.53
2023-01-19T15:35:16.673Z,4.00
2023-01-19T15:37:44.557Z,3.77
2023-01-19T15:40:13.254Z,3.50
2023-01-19T15:42:42.590Z,3.30
2023-01-19T15:45:44.397Z,4.73
2023-01-19T15:48:13.111Z,4.43
2023-01-19T15:50:42.904Z,6.30
2023-01-19T15:53:14.471Z,7.30
2023-01-19T15:55:42.246Z,6.00
2023-01-19T15:58:13.887Z,4.90
2023-01-19T16:00:42.419Z,6.23
2023-01-19T16:03:11.668Z,7.10
2023-01-19T16:05:43.634Z,6.10
2023-01-19T16:08:12.158Z,6.10
2023-01-19T16:10:40.190Z,6.53
2023-01-19T16:13:08.277Z,5.07
2023-01-19T16:15:38.379Z,9.93
2023-01-19T16:18:07.334Z,8.10
2023-01-19T16:20:35.133Z,5.53
2023-01-19T16:23:14.751Z,4.70
2023-01-19T16:25:42.983Z,4.13
2023-01-19T16:28:10.844Z,4.30
2023-01-19T16:30:40.001Z,4.73
2023-01-19T16:33:08.285Z,5.30
2023-01-19T16:35:36.070Z,5.93
2023-01-19T16:38:03.939Z,5.37
2023-01-19T16:40:31.758Z,5.77
2023-01-19T16:42:59.522Z,6.33
2023-01-19T16:45:27.353Z,5.87
2023-01-19T16:47:56.658Z,5.90
2023-01-19T16:50:24.456Z,5.17
2023-01-19T16:52:58.835Z,5.13
2023-01-19T16:55:26.596Z,5.03
2023-01-19T16:57:55.867Z,4.57
2023-01-19T17:00:23.872Z,5.13
2023-01-19T17:02:51.692Z,5.27
2023-01-19T17:05:20.822Z,4.47
2023-01-19T17:07:48.570Z,4.97
2023-01-19T17:10:16.944Z,5.50
2023-01-19T17:12:44.733Z,5.10
2023-01-19T17:15:12.590Z,5.07
2023-01-19T17:17:40.385Z,5.77
2023-01-19T17:20:09.834Z,5.37
2023-01-19T17:22:39.199Z,5.70
2023-01-19T17:25:08.102Z,5.40
2023-01-19T17:27:36.522Z,5.07
2023-01-19T17:30:04.444Z,4.33
2023-01-19T17:32:32.229Z,3.93
2023-01-19T17:35:00.032Z,3.67
2023-01-19T17:37:27.770Z,3.70
2023-01-19T17:39:57.265Z,4.27
2023-01-19T17:42:25.255Z,4.43
2023-01-19T17:44:53.081Z,4.47
2023-01-19T17:47:25.272Z,4.83
2023-01-19T17:49:53.168Z,4.80
2023-01-19T17:52:20.927Z,5.03
2023-01-19T17:54:48.726Z,4.63
2023-01-19T17:57:17.848Z,4.40
2023-01-19T17:59:47.118Z,4.13
2023-01-19T18:02:14.964Z,4.50
2023-01-19T18:04:42.909Z,4.33
2023-01-19T18:07:10.705Z,3.50
2023-01-19T18:09:38.448Z,3.60
2023-01-19T18:12:06.392Z,4.07
2023-01-19T18:14:35.508Z,3.70
2023-01-19T18:17:03.601Z,4.10
2023-01-19T18:19:31.355Z,3.90
2023-01-19T18:21:59.101Z,4.60
2023-01-19T18:24:26.881Z,4.93
2023-01-19T18:26:55.764Z,4.70
2023-01-19T18:29:23.659Z,4.27
2023-01-19T18:31:52.889Z,5.07
2023-01-19T18:34:20.755Z,4.93
2023-01-19T18:36:48.520Z,4.90
2023-01-19T18:39:16.314Z,4.47
2023-01-19T18:41:44.114Z,4.40
2023-01-19T18:44:12.630Z,4.90
2023-01-19T18:46:40.489Z,5.20
2023-01-19T18:49:10.034Z,4.63
2023-01-19T18:51:39.431Z,5.57
2023-01-19T18:54:07.506Z,4.53
2023-01-19T18:56:35.297Z,5.20
2023-01-19T18:59:03.391Z,4.37
2023-01-19T19:01:34.899Z,5.27
2023-01-19T19:04:02.991Z,4.43
2023-01-19T19:06:32.227Z,4.67
2023-01-19T19:09:00.117Z,4.57
2023-01-19T19:11:28.584Z,5.20
2023-01-19T19:13:58.577Z,6.20
2023-01-19T19:16:26.469Z,7.30
2023-01-19T19:18:54.315Z,6.80
2023-01-19T19:21:25.068Z,5.87
2023-01-19T19:23:55.235Z,5.70
2023-01-19T19:26:24.362Z,5.17
2023-01-19T19:28:52.131Z,5.40
2023-01-19T19:31:22.327Z,5.90
2023-01-19T19:33:50.789Z,5.70
2023-01-19T19:36:19.794Z,5.47
2023-01-19T19:38:47.729Z,4.97
2023-01-19T19:41:19.160Z,5.10
2023-01-19T19:43:46.977Z,4.97
2023-01-19T19:46:17.606Z,5.17
2023-01-19T19:48:45.506Z,5.23
2023-01-19T19:51:19.543Z,4.83
2023-01-19T19:53:50.923Z,4.83
2023-01-19T19:56:22.816Z,4.60
2023-01-19T19:58:51.646Z,4.70
2023-01-19T20:01:20.977Z,4.50
2023-01-19T20:03:49.289Z,5.03
2023-01-19T20:06:20.618Z,5.17
2023-01-19T20:08:48.844Z,5.10
2023-01-19T20:11:18.449Z,4.57
2023-01-19T20:13:47.682Z,4.20
2023-01-19T20:16:18.092Z,4.47
2023-01-19T20:18:48.405Z,4.20
2023-01-19T20:21:18.472Z,4.87
2023-01-19T20:23:47.068Z,5.03
2023-01-19T20:26:17.419Z,4.50
2023-01-19T20:28:46.955Z,4.97
2023-01-19T20:31:17.211Z,5.03
2023-01-19T20:33:45.472Z,5.80
2023-01-19T20:36:13.273Z,5.60
2023-01-19T20:38:41.853Z,4.87
2023-01-19T20:41:11.286Z,4.90
2023-01-19T20:43:39.660Z,5.00
2023-01-19T20:46:09.082Z,4.43
2023-01-19T20:48:38.982Z,4.67
2023-01-19T20:51:08.721Z,4.40
2023-01-19T20:53:37.318Z,4.63
2023-01-19T20:56:06.223Z,5.07
2023-01-19T20:58:34.803Z,4.17
2023-01-19T21:01:14.243Z,5.93
2023-01-19T21:03:42.575Z,6.47
2023-01-19T21:06:10.825Z,6.47
2023-01-19T21:08:38.801Z,6.30
2023-01-19T21:11:07.359Z,6.50
2023-01-19T21:13:35.865Z,7.00
2023-01-19T21:16:04.715Z,6.40
2023-01-19T21:18:33.868Z,5.67
2023-01-19T21:21:01.657Z,5.07
2023-01-19T21:23:29.834Z,5.17
2023-01-19T21:25:59.735Z,5.30
2023-01-19T21:28:28.787Z,5.90
2023-01-19T21:30:58.003Z,6.17
2023-01-19T21:33:25.826Z,5.30
2023-01-19T21:35:56.626Z,5.30
2023-01-19T21:38:26.626Z,5.40
2023-01-19T21:40:54.695Z,5.63
2023-01-19T21:43:22.618Z,6.10
2023-01-19T21:45:50.801Z,7.00
2023-01-19T21:48:19.560Z,6.07
2023-01-19T21:50:47.326Z,6.70
2023-01-19T21:53:16.426Z,7.00
2023-01-19T21:55:45.448Z,6.40
2023-01-19T21:58:13.270Z,6.37
2023-01-19T22:00:41.165Z,7.03
2023-01-19T22:03:09.042Z,6.37
2023-01-19T22:05:37.491Z,6.10
2023-01-19T22:08:06.160Z,5.43
2023-01-19T22:10:37.957Z,5.43
2023-01-19T22:13:06.564Z,5.30
2023-01-19T22:15:34.538Z,5.60
2023-01-19T22:18:02.378Z,5.30
2023-01-19T22:20:30.161Z,5.73
2023-01-19T22:22:58.286Z,5.13
2023-01-19T22:25:27.861Z,5.53
2023-01-19T22:27:58.500Z,5.73
2023-01-19T22:30:26.488Z,6.67
2023-01-19T22:32:54.407Z,7.33
2023-01-19T22:35:22.201Z,6.27
2023-01-19T22:37:49.978Z,5.57
2023-01-19T22:40:18.423Z,5.53
2023-01-19T22:42:47.659Z,5.40
2023-01-19T22:45:16.925Z,4.80
2023-01-19T22:47:44.853Z,5.13
2023-01-19T22:50:12.857Z,4.87
2023-01-19T22:52:40.622Z,5.50
2023-01-19T22:55:09.102Z,5.80
2023-01-19T22:57:37.278Z,5.80
2023-01-19T23:00:08.572Z,5.53
2023-01-19T23:02:37.692Z,6.10
2023-01-19T23:05:06.261Z,5.10
2023-01-19T23:07:34.394Z,5.23
2023-01-19T23:10:02.162Z,5.83
2023-01-19T23:12:29.942Z,6.27
2023-01-19T23:14:57.688Z,7.07
2023-01-19T23:17:25.475Z,7.10
2023-01-19T23:19:55.050Z,6.13
2023-01-19T23:22:23.306Z,5.33
2023-01-19T23:24:51.057Z,6.00
2023-01-19T23:27:18.843Z,5.73
2023-01-19T23:29:46.946Z,5.90
2023-01-19T23:32:14.733Z,5.00
2023-01-19T23:34:42.498Z,5.33
2023-01-19T23:37:11.621Z,5.83
2023-01-19T23:39:39.413Z,6.23
2023-01-19T23:42:08.018Z,6.40
2023-01-19T23:44:35.959Z,5.90
2023-01-19T23:47:03.786Z,5.67
2023-01-19T23:49:31.580Z,6.00
2023-01-19T23:51:59.368Z,5.47
2023-01-19T23:54:28.542Z,6.07
2023-01-19T23:56:56.318Z,6.23
2023-01-19T23:59:24.083Z,5.57
